Time;durP1;ratioP1;P1;durP2;ratioP2;P2;SDS_P1;SDS_P2;PMS_P1;PMS_P2;Temp;Humidity;BMP_temperature;BMP_pressure;BME280_temperature;BME280_humidity;BME280_pressure;Samples;Min_cycle;Max_cycle;Signal;HPM_P1;HPM_P2
2021/07/13 00:00:22;;;;;;;;;;;;;;;19.45;100.00;95050.22;1053137;28;19908;-71
2021/07/13 00:00:53;;;;;;;;;;;;;;;19.43;100.00;95047.06;1054719;28;19934;-72
2021/07/13 00:01:23;;;;;;;;;;;;;;;19.44;100.00;95047.84;1050454;28;19966;-71
2021/07/13 00:01:53;;;;;;;;;;;;;;;19.44;100.00;95048.63;1050259;28;19936;-71
2021/07/13 00:02:23;;;;;;;;;;;;;;;19.45;100.00;95036.69;1050626;28;19923;-72
2021/07/13 00:02:54;;;;;;;;;;;;;;;19.44;100.00;95051.34;1050677;28;19915;-72
2021/07/13 00:03:24;;;;;;;;;;;;;;;19.45;100.00;95044.81;1050678;28;20414;-70
2021/07/13 00:03:54;;;;;;;;;;;;;;;19.44;100.00;95047.84;1050463;28;19909;-70
2021/07/13 00:04:25;;;;;;;;;;;;;;;19.44;100.00;95042.44;1046374;28;19901;-72
2021/07/13 00:04:55;;;;;;;;;;;;;;;19.44;100.00;95045.94;1041843;28;19917;-71
2021/07/13 00:05:25;;;;;;;;;;;;;;;19.43;100.00;95046.28;1042185;28;20254;-71
2021/07/13 00:05:56;;;;;;;;;;;;;;;19.42;100.00;95045.50;1041848;28;20019;-71
2021/07/13 00:06:27;;;;;;;;;;;;;;;19.42;100.00;95042.78;1045915;28;19947;-71
2021/07/13 00:06:57;;;;;;;;;;;;;;;19.41;100.00;95046.63;1044670;28;19916;-71
2021/07/13 00:07:27;;;;;;;;;;;;;;;19.41;100.00;95051.28;1044840;28;19944;-71
2021/07/13 00:07:58;;;;;;;;;;;;;;;19.42;100.00;95050.13;1049322;28;20309;-71
2021/07/13 00:08:28;;;;;;;;;;;;;;;19.43;100.00;95051.69;1049236;28;19991;-71
2021/07/13 00:08:58;;;;;;;;;;;;;;;19.42;100.00;95044.72;1049328;28;19951;-71
2021/07/13 00:09:29;;;;;;;;;;;;;;;19.43;100.00;95046.28;1054911;28;19916;-72
2021/07/13 00:09:59;;;;;;;;;;;;;;;19.42;100.00;95047.44;1050575;28;19904;-71
2021/07/13 00:10:30;;;;;;;;;;;;;;;19.42;100.00;95047.44;1050665;28;20441;-71
2021/07/13 00:11:00;;;;;;;;;;;;;;;19.41;100.00;95052.06;1051454;28;19900;-72
2021/07/13 00:11:30;;;;;;;;;;;;;;;19.40;100.00;95050.50;1051328;28;19908;-73
2021/07/13 00:12:00;;;;;;;;;;;;;;;19.39;100.00;95048.91;1051062;28;19905;-71
2021/07/13 00:12:31;;;;;;;;;;;;;;;19.39;100.00;95050.81;1050765;28;20305;-71
2021/07/13 00:13:01;;;;;;;;;;;;;;;19.38;100.00;95054.66;1046810;28;19912;-71
2021/07/13 00:13:31;;;;;;;;;;;;;;;19.38;100.00;95052.75;1046929;28;19916;-71
2021/07/13 00:14:02;;;;;;;;;;;;;;;19.38;100.00;95054.66;1042219;28;20350;-71
2021/07/13 00:14:35;;;;;;;;;;;;;;;19.37;100.00;95051.19;1042840;28;19917;-71
2021/07/13 00:15:10;;;;;;;;;;;;;;;19.37;100.00;95055.81;1046885;28;20408;-71
2021/07/13 00:15:41;;;;;;;;;;;;;;;19.37;100.00;95061.22;1040302;28;19913;-72
2021/07/13 00:16:11;;;;;;;;;;;;;;;19.36;100.00;95065.88;1039287;28;19992;-71
2021/07/13 00:16:42;;;;;;;;;;;;;;;19.36;100.00;95070.50;1042242;28;19909;-71
2021/07/13 00:17:12;;;;;;;;;;;;;;;19.35;100.00;95064.28;1042508;28;19924;-71
2021/07/13 00:17:43;;;;;;;;;;;;;;;19.35;100.00;95071.63;1047616;28;19905;-71
2021/07/13 00:18:13;;;;;;;;;;;;;;;19.35;100.00;95074.34;1052822;28;19913;-71
2021/07/13 00:18:43;;;;;;;;;;;;;;;19.34;100.00;95073.53;1052205;28;19913;-71
2021/07/13 00:19:14;;;;;;;;;;;;;;;19.35;100.00;95077.06;1051511;28;19912;-71
2021/07/13 00:19:44;;;;;;;;;;;;;;;19.34;100.00;95083.59;1051317;28;19966;-71
2021/07/13 00:20:14;;;;;;;;;;;;;;;19.34;100.00;95083.59;1047029;28;20447;-70
2021/07/13 00:20:44;;;;;;;;;;;;;;;19.34;100.00;95078.94;1047149;28;19920;-69
2021/07/13 00:21:15;;;;;;;;;;;;;;;19.34;100.00;95091.72;1042834;28;19917;-69
2021/07/13 00:21:45;;;;;;;;;;;;;;;19.32;100.00;95085.88;1046873;28;19917;-69
2021/07/13 00:22:15;;;;;;;;;;;;;;;19.33;100.00;95095.56;1050971;28;20443;-69
2021/07/13 00:22:46;;;;;;;;;;;;;;;19.31;100.00;95095.91;1051290;28;19948;-71
2021/07/13 00:23:16;;;;;;;;;;;;;;;19.32;100.00;95096.69;1055850;28;19912;-70
2021/07/13 00:23:46;;;;;;;;;;;;;;;19.29;100.00;95090.03;1056260;28;19912;-70
2021/07/13 00:24:16;;;;;;;;;;;;;;;19.27;100.00;95091.53;1055801;28;19919;-70
2021/07/13 00:24:47;;;;;;;;;;;;;;;19.23;100.00;95094.13;1056227;28;19919;-70
2021/07/13 00:25:17;;;;;;;;;;;;;;;19.21;100.00;95091.78;1055953;28;20429;-70
2021/07/13 00:25:47;;;;;;;;;;;;;;;19.19;100.00;95091.34;1056356;28;19913;-69
2021/07/13 00:26:18;;;;;;;;;;;;;;;19.16;100.00;95093.97;1055507;28;19918;-70
2021/07/13 00:26:48;;;;;;;;;;;;;;;19.13;100.00;95092.72;1051073;28;19912;-72
2021/07/13 00:27:18;;;;;;;;;;;;;;;19.10;100.00;95088.00;1038137;28;19914;-73
2021/07/13 00:27:48;;;;;;;;;;;;;;;19.07;100.00;95085.97;1038838;28;19914;-69
2021/07/13 00:28:19;;;;;;;;;;;;;;;19.06;100.00;95091.75;1038431;28;19914;-70
2021/07/13 00:28:49;;;;;;;;;;;;;;;19.03;100.00;95085.09;1042409;28;19945;-70
2021/07/13 00:29:19;;;;;;;;;;;;;;;19.00;100.00;95080.38;1054666;28;19913;-69
2021/07/13 00:29:50;;;;;;;;;;;;;;;18.99;100.00;95083.41;1054757;28;19959;-70
2021/07/13 00:30:20;;;;;;;;;;;;;;;18.96;100.00;95088.41;1054575;28;19938;-70
2021/07/13 00:30:50;;;;;;;;;;;;;;;18.94;100.00;95087.19;1054461;28;19951;-70
2021/07/13 00:31:20;;;;;;;;;;;;;;;18.90;100.00;95083.59;1055802;28;19908;-71
2021/07/13 00:31:51;;;;;;;;;;;;;;;18.88;100.00;95080.41;1055661;28;19947;-71
2021/07/13 00:32:21;;;;;;;;;;;;;;;18.86;100.00;95080.00;1055559;28;19930;-71
2021/07/13 00:32:51;;;;;;;;;;;;;;;18.86;100.00;95080.00;1055545;28;19934;-71
2021/07/13 00:33:22;;;;;;;;;;;;;;;18.84;100.00;95077.63;1055624;28;19916;-71
2021/07/13 00:33:52;;;;;;;;;;;;;;;18.84;100.00;95077.63;1055814;28;19919;-71
2021/07/13 00:34:22;;;;;;;;;;;;;;;18.83;100.00;95072.53;1051153;28;19912;-71
2021/07/13 00:34:53;;;;;;;;;;;;;;;18.81;100.00;95078.31;1047347;28;19912;-70
2021/07/13 00:35:23;;;;;;;;;;;;;;;18.81;100.00;95080.22;1047596;28;19912;-71
2021/07/13 00:35:53;;;;;;;;;;;;;;;18.81;100.00;95091.84;1043623;28;19912;-71
2021/07/13 00:36:24;;;;;;;;;;;;;;;18.80;100.00;95084.06;1043104;28;19917;-71
2021/07/13 00:36:54;;;;;;;;;;;;;;;18.79;100.00;95090.63;1042774;28;20366;-71
2021/07/13 00:37:25;;;;;;;;;;;;;;;18.79;100.00;95087.91;1043155;28;19948;-71
2021/07/13 00:37:55;;;;;;;;;;;;;;;18.79;100.00;95086.00;1046944;28;20404;-70
2021/07/13 00:38:25;;;;;;;;;;;;;;;18.79;100.00;95093.34;1051222;28;19963;-70
2021/07/13 00:38:55;;;;;;;;;;;;;;;18.76;100.00;95094.00;1051318;28;19905;-69
2021/07/13 00:39:26;;;;;;;;;;;;;;;18.76;100.00;95094.00;1046906;28;19917;-69
2021/07/13 00:39:56;;;;;;;;;;;;;;;18.75;100.00;95098.63;1047158;28;19916;-70
2021/07/13 00:40:26;;;;;;;;;;;;;;;18.74;100.00;95102.47;1047092;28;19913;-70
2021/07/13 00:40:56;;;;;;;;;;;;;;;18.73;100.00;95098.19;1051223;28;19920;-71
2021/07/13 00:41:27;;;;;;;;;;;;;;;18.70;100.00;95104.28;1056781;28;19938;-71
2021/07/13 00:41:57;;;;;;;;;;;;;;;18.68;100.00;95101.13;1055332;28;20355;-71
2021/07/13 00:42:27;;;;;;;;;;;;;;;18.68;100.00;95106.53;1055488;28;19923;-71
2021/07/13 00:42:58;;;;;;;;;;;;;;;18.67;100.00;95110.34;1055560;28;19934;-72
2021/07/13 00:43:28;;;;;;;;;;;;;;;18.67;100.00;95105.72;1050907;28;19912;-71
2021/07/13 00:43:58;;;;;;;;;;;;;;;18.66;100.00;95114.97;1051348;28;19912;-71
2021/07/13 00:44:29;;;;;;;;;;;;;;;18.66;100.00;95108.78;1050908;28;19995;-70
2021/07/13 00:44:59;;;;;;;;;;;;;;;18.68;100.00;95104.66;1051161;28;19917;-71
2021/07/13 00:45:29;;;;;;;;;;;;;;;18.67;100.00;95113.84;1051124;28;19935;-71
2021/07/13 00:46:00;;;;;;;;;;;;;;;18.67;100.00;95110.34;1050784;28;20042;-70
2021/07/13 00:46:30;;;;;;;;;;;;;;;18.66;100.00;95103.38;1045606;28;20361;-70
2021/07/13 00:47:00;;;;;;;;;;;;;;;18.64;100.00;95111.84;1045336;28;19913;-70
2021/07/13 00:47:30;;;;;;;;;;;;;;;18.64;100.00;95111.06;1045486;28;19913;-70
2021/07/13 00:48:01;;;;;;;;;;;;;;;18.62;100.00;95097.84;1045348;28;20328;-72
2021/07/13 00:48:31;;;;;;;;;;;;;;;18.63;100.00;95107.56;1050050;28;19998;-71
2021/07/13 00:49:03;;;;;;;;;;;;;;;18.60;100.00;95110.94;1050551;28;19971;-71
2021/07/13 00:49:33;;;;;;;;;;;;;;;18.58;100.00;95105.09;1049634;28;19999;-70
2021/07/13 00:50:04;;;;;;;;;;;;;;;18.58;100.00;95096.16;1049522;28;19919;-70
2021/07/13 00:50:34;;;;;;;;;;;;;;;18.58;100.00;95104.28;1053686;28;19916;-70
2021/07/13 00:51:05;;;;;;;;;;;;;;;18.57;100.00;95102.72;1049211;28;19901;-70
2021/07/13 00:51:35;;;;;;;;;;;;;;;18.57;100.00;95095.38;1049189;28;19913;-70
2021/07/13 00:52:05;;;;;;;;;;;;;;;18.56;100.00;95099.22;1045023;28;19982;-70
2021/07/13 00:52:36;;;;;;;;;;;;;;;18.54;100.00;95104.19;1045127;28;19924;-70
2021/07/13 00:53:06;;;;;;;;;;;;;;;18.54;100.00;95100.69;1045080;28;20397;-70
2021/07/13 00:53:38;;;;;;;;;;;;;;;18.54;100.00;95096.06;1045054;28;19917;-70
2021/07/13 00:54:08;;;;;;;;;;;;;;;18.53;100.00;95093.69;1044990;28;19909;-70
2021/07/13 00:54:41;;;;;;;;;;;;;;;18.52;100.00;95098.31;1045162;28;19924;-70
2021/07/13 00:55:12;;;;;;;;;;;;;;;18.52;100.00;95092.91;1040866;28;19916;-70
2021/07/13 00:55:42;;;;;;;;;;;;;;;18.52;100.00;95084.00;1041306;28;19920;-70
2021/07/13 00:56:12;;;;;;;;;;;;;;;18.52;100.00;95102.94;1045085;28;20435;-70
2021/07/13 00:56:43;;;;;;;;;;;;;;;18.52;100.00;95092.13;1044829;28;19924;-71
2021/07/13 00:57:13;;;;;;;;;;;;;;;18.51;100.00;95088.63;1053402;28;19909;-70
2021/07/13 00:57:44;;;;;;;;;;;;;;;18.50;100.00;95083.56;1053634;28;20395;-71
2021/07/13 00:58:14;;;;;;;;;;;;;;;18.52;100.00;95084.00;1053633;28;20281;-71
2021/07/13 00:58:44;;;;;;;;;;;;;;;18.53;100.00;95086.38;1049078;28;19920;-70
2021/07/13 00:59:15;;;;;;;;;;;;;;;18.53;100.00;95080.97;1049107;28;19901;-70
2021/07/13 00:59:45;;;;;;;;;;;;;;;18.54;100.00;95082.56;1048926;28;20433;-71
2021/07/13 01:00:16;;;;;;;;;;;;;;;18.56;100.00;95082.97;1049169;28;19916;-70
2021/07/13 01:00:47;;;;;;;;;;;;;;;18.59;100.00;95076.91;1053654;28;19916;-70
2021/07/13 01:01:17;;;;;;;;;;;;;;;18.59;100.00;95071.50;1053605;28;20452;-70
2021/07/13 01:01:48;;;;;;;;;;;;;;;18.59;100.00;95074.19;1049135;28;19924;-71
2021/07/13 01:02:18;;;;;;;;;;;;;;;18.61;100.00;95073.84;1049090;28;20026;-70
2021/07/13 01:02:52;;;;;;;;;;;;;;;18.62;100.00;95059.19;1049106;28;19916;-71
2021/07/13 01:03:22;;;;;;;;;;;;;;;18.64;100.00;95067.75;1049635;28;19913;-71
2021/07/13 01:03:53;;;;;;;;;;;;;;;18.64;100.00;95071.25;1053338;28;19916;-71
2021/07/13 01:04:23;;;;;;;;;;;;;;;18.65;100.00;95070.09;1049134;28;19909;-70
2021/07/13 01:04:58;;;;;;;;;;;;;;;18.66;100.00;95070.91;1048972;28;19917;-71
2021/07/13 01:05:33;;;;;;;;;;;;;;;18.68;100.00;95074.88;1049186;28;20383;-71
2021/07/13 01:06:03;;;;;;;;;;;;;;;18.72;100.00;95064.13;1042000;28;19917;-70
2021/07/13 01:06:41;;;;;;;;;;;;;;;18.74;100.00;95069.22;1049122;28;20502;-70
2021/07/13 01:07:18;;;;;;;;;;;;;;;18.75;100.00;95063.47;1044980;28;19917;-70
2021/07/13 01:07:56;;;;;;;;;;;;;;;18.79;100.00;95067.06;1038603;28;19913;-70
2021/07/13 01:08:28;;;;;;;;;;;;;;;18.81;100.00;95064.00;1037912;28;20453;-70
2021/07/13 01:09:07;;;;;;;;;;;;;;;18.80;100.00;95071.31;1043161;28;20386;-71
2021/07/13 01:09:39;;;;;;;;;;;;;;;18.83;100.00;95076.03;1049929;28;19947;-71
2021/07/13 01:10:09;;;;;;;;;;;;;;;18.85;100.00;95062.19;1053343;28;20391;-70
2021/07/13 01:10:40;;;;;;;;;;;;;;;18.84;100.00;95066.03;1051838;28;19951;-70
2021/07/13 01:11:28;;;;;;;;;;;;;;;18.86;100.00;95063.75;1049152;28;19935;-71
2021/07/13 01:12:05;;;;;;;;;;;;;;;18.84;100.00;95064.09;1053235;28;19920;-71
2021/07/13 01:12:44;;;;;;;;;;;;;;;18.85;100.00;95065.66;1053294;28;19916;-70
2021/07/13 01:13:27;;;;;;;;;;;;;;;18.86;100.00;95069.16;1049112;28;20392;-70
2021/07/13 01:14:13;;;;;;;;;;;;;;;18.87;100.00;95071.50;1041249;28;19913;-70
2021/07/13 01:14:49;;;;;;;;;;;;;;;18.87;100.00;95070.72;1041083;28;20405;-70
2021/07/13 01:15:20;;;;;;;;;;;;;;;18.88;100.00;95073.09;1040846;28;19996;-70
2021/07/13 01:16:04;;;;;;;;;;;;;;;18.89;100.00;95080.09;1039627;28;19917;-70
2021/07/13 01:16:54;;;;;;;;;;;;;;;18.88;100.00;95081.19;1043027;28;19929;-70
2021/07/13 01:17:43;;;;;;;;;;;;;;;18.91;100.00;95085.16;1049056;28;20365;-71
2021/07/13 01:18:17;;;;;;;;;;;;;;;18.90;100.00;95086.28;1044868;28;19923;-70
2021/07/13 01:19:06;;;;;;;;;;;;;;;18.92;100.00;95098.34;1045001;28;20329;-70
2021/07/13 01:19:39;;;;;;;;;;;;;;;18.93;100.00;95097.19;1048908;28;20356;-70
2021/07/13 01:20:28;;;;;;;;;;;;;;;18.95;100.00;95094.16;1052875;28;19920;-70
2021/07/13 01:21:04;;;;;;;;;;;;;;;18.94;100.00;95098.81;1053543;28;19908;-70
2021/07/13 01:21:42;;;;;;;;;;;;;;;18.95;100.00;95108.50;1053330;28;19916;-70
2021/07/13 01:22:15;;;;;;;;;;;;;;;18.96;100.00;95111.97;1049045;28;20041;-70
2021/07/13 01:22:53;;;;;;;;;;;;;;;18.96;100.00;95118.19;1044900;28;20417;-70
2021/07/13 01:23:24;;;;;;;;;;;;;;;18.96;100.00;95118.19;1044955;28;19926;-70
2021/07/13 01:23:54;;;;;;;;;;;;;;;18.98;100.00;95119.75;1042180;28;19953;-70
2021/07/13 01:24:28;;;;;;;;;;;;;;;19.02;100.00;95128.78;1045996;28;19948;-70
2021/07/13 01:25:19;;;;;;;;;;;;;;;19.02;100.00;95126.06;1049153;28;19912;-70
2021/07/13 01:26:03;;;;;;;;;;;;;;;19.01;100.00;95136.09;1044621;28;19920;-70
2021/07/13 01:26:40;;;;;;;;;;;;;;;19.01;100.00;95136.09;1044904;28;19940;-71
2021/07/13 01:27:11;;;;;;;;;;;;;;;19.02;100.00;95139.59;1048202;28;19924;-70
2021/07/13 01:27:50;;;;;;;;;;;;;;;18.99;100.00;95148.41;1053204;28;19916;-71
2021/07/13 01:28:21;;;;;;;;;;;;;;;18.98;100.00;95146.81;1049035;28;19916;-70
2021/07/13 01:28:58;;;;;;;;;;;;;;;18.98;100.00;95144.91;1046359;28;20011;-70
2021/07/13 01:29:28;;;;;;;;;;;;;;;18.98;100.00;95147.63;1046940;28;20011;-70
2021/07/13 01:29:59;;;;;;;;;;;;;;;18.98;100.00;95152.25;1041698;28;19920;-70
2021/07/13 01:30:35;;;;;;;;;;;;;;;18.99;100.00;95160.03;1045728;28;19942;-69
2021/07/13 01:31:06;;;;;;;;;;;;;;;18.98;100.00;95153.03;1044844;28;20007;-70
2021/07/13 01:31:38;;;;;;;;;;;;;;;18.98;100.00;95149.53;1041781;28;20271;-70
2021/07/13 01:32:08;;;;;;;;;;;;;;;18.96;100.00;95149.88;1040791;28;19921;-70
2021/07/13 01:32:39;;;;;;;;;;;;;;;18.98;100.00;95150.31;1036963;28;19916;-70
2021/07/13 01:33:13;;;;;;;;;;;;;;;18.98;100.00;95152.25;1040918;28;19940;-70
2021/07/13 01:33:47;;;;;;;;;;;;;;;18.96;100.00;95150.66;1045668;28;20369;-70
2021/07/13 01:34:18;;;;;;;;;;;;;;;18.96;100.00;95144.47;1046008;28;19956;-70
2021/07/13 01:34:54;;;;;;;;;;;;;;;18.95;100.00;95142.91;1049036;28;19971;-70
2021/07/13 01:35:26;;;;;;;;;;;;;;;18.91;100.00;95139.31;1049118;28;19954;-70
2021/07/13 01:36:08;;;;;;;;;;;;;;;18.85;100.00;95143.38;1049053;28;20392;-70
2021/07/13 01:36:44;;;;;;;;;;;;;;;18.76;100.00;95127.28;1054047;28;19915;-70
2021/07/13 01:37:14;;;;;;;;;;;;;;;18.76;100.00;95126.50;1057450;28;20296;-70
2021/07/13 01:37:46;;;;;;;;;;;;;;;18.70;100.00;95120.53;1053145;28;19946;-70
2021/07/13 01:38:17;;;;;;;;;;;;;;;18.66;100.00;95114.97;1047969;28;20316;-71
2021/07/13 01:38:47;;;;;;;;;;;;;;;18.62;100.00;95107.88;1044907;28;19905;-70
2021/07/13 01:39:18;;;;;;;;;;;;;;;18.59;100.00;95103.94;1045187;28;19913;-70
2021/07/13 01:39:50;;;;;;;;;;;;;;;18.57;100.00;95094.59;1049044;28;20277;-70
2021/07/13 01:40:21;;;;;;;;;;;;;;;18.53;100.00;95091.81;1053435;28;19974;-70
2021/07/13 01:40:53;;;;;;;;;;;;;;;18.47;100.00;95082.31;1053233;28;19997;-70
2021/07/13 01:41:23;;;;;;;;;;;;;;;18.45;100.00;95076.47;1048965;28;19916;-70
2021/07/13 01:41:54;;;;;;;;;;;;;;;18.41;100.00;95073.66;1044486;28;19944;-70
2021/07/13 01:42:25;;;;;;;;;;;;;;;18.39;100.00;95059.69;1045275;28;20377;-70
2021/07/13 01:42:55;;;;;;;;;;;;;;;18.38;100.00;95046.53;1049161;28;19924;-70
2021/07/13 01:43:25;;;;;;;;;;;;;;;18.35;100.00;95042.56;1049129;28;19916;-71
2021/07/13 01:43:55;;;;;;;;;;;;;;;18.36;100.00;95027.13;1048998;28;20309;-70
2021/07/13 01:44:26;;;;;;;;;;;;;;;18.33;100.00;95012.38;1044798;28;19917;-71
2021/07/13 01:44:56;;;;;;;;;;;;;;;18.35;100.00;95007.41;1040701;28;19909;-70
2021/07/13 01:45:26;;;;;;;;;;;;;;;18.34;100.00;94997.72;1048903;28;19908;-70
2021/07/13 01:45:57;;;;;;;;;;;;;;;18.32;100.00;94991.06;1048931;28;19912;-70
2021/07/13 01:46:28;;;;;;;;;;;;;;;18.33;100.00;94981.84;1045093;28;19909;-71
2021/07/13 01:46:58;;;;;;;;;;;;;;;18.32;100.00;94977.56;1052157;28;19964;-70
2021/07/13 01:47:28;;;;;;;;;;;;;;;18.30;100.00;94979.81;1040742;28;19917;-71
2021/07/13 01:47:59;;;;;;;;;;;;;;;18.31;100.00;94971.34;1040925;28;20278;-70
2021/07/13 01:48:30;;;;;;;;;;;;;;;18.32;100.00;94969.44;1049024;28;19908;-70
2021/07/13 01:49:01;;;;;;;;;;;;;;;18.31;100.00;94974.06;1044965;28;19909;-70
2021/07/13 01:49:31;;;;;;;;;;;;;;;18.31;100.00;94963.25;1048974;28;20368;-71
2021/07/13 01:50:02;;;;;;;;;;;;;;;18.33;100.00;94968.34;1048866;28;19913;-70
2021/07/13 01:50:32;;;;;;;;;;;;;;;18.34;100.00;94964.50;1044591;28;19913;-70
2021/07/13 01:51:03;;;;;;;;;;;;;;;18.33;100.00;94963.69;1044856;28;19963;-70
2021/07/13 01:51:33;;;;;;;;;;;;;;;18.36;100.00;94965.69;1044864;28;20352;-71
2021/07/13 01:52:03;;;;;;;;;;;;;;;18.37;100.00;94966.50;1049028;28;19912;-70
2021/07/13 01:52:34;;;;;;;;;;;;;;;18.37;100.00;94967.28;1048970;28;20368;-70
2021/07/13 01:53:05;;;;;;;;;;;;;;;18.37;100.00;94964.56;1049131;28;19919;-70
2021/07/13 01:53:35;;;;;;;;;;;;;;;18.39;100.00;94969.66;1048858;28;20010;-71
2021/07/13 01:54:06;;;;;;;;;;;;;;;18.41;100.00;94972.78;1044812;28;19924;-70
2021/07/13 01:54:37;;;;;;;;;;;;;;;18.41;100.00;94970.88;1040748;28;20324;-70
2021/07/13 01:55:07;;;;;;;;;;;;;;;18.41;100.00;94978.19;1036840;28;19914;-70
2021/07/13 01:55:38;;;;;;;;;;;;;;;18.42;100.00;94980.56;1040720;28;20000;-70
2021/07/13 01:56:10;;;;;;;;;;;;;;;18.43;100.00;94981.38;1044960;28;20301;-70
2021/07/13 01:56:40;;;;;;;;;;;;;;;18.42;100.00;94987.88;1049021;28;19908;-70
2021/07/13 01:57:11;;;;;;;;;;;;;;;18.43;100.00;94987.56;1044638;28;20019;-71
2021/07/13 01:57:41;;;;;;;;;;;;;;;18.44;100.00;94997.25;1044381;28;20035;-70
2021/07/13 01:58:11;;;;;;;;;;;;;;;18.43;100.00;94992.19;1045055;28;19962;-70
2021/07/13 01:58:41;;;;;;;;;;;;;;;18.44;100.00;95007.28;1049118;28;19912;-70
2021/07/13 01:59:12;;;;;;;;;;;;;;;18.47;100.00;95005.78;1048786;28;19916;-70
2021/07/13 01:59:44;;;;;;;;;;;;;;;18.49;100.00;95011.66;1048880;28;19912;-70
2021/07/13 02:00:14;;;;;;;;;;;;;;;18.49;100.00;95017.06;1044907;28;19924;-70
2021/07/13 02:00:45;;;;;;;;;;;;;;;18.48;100.00;95016.28;1044860;28;19909;-70
2021/07/13 02:01:18;;;;;;;;;;;;;;;18.50;100.00;95024.06;1040654;28;20305;-71
2021/07/13 02:01:49;;;;;;;;;;;;;;;18.50;100.00;95027.53;1036584;28;20302;-70
2021/07/13 02:02:19;;;;;;;;;;;;;;;18.51;100.00;95031.81;1041280;28;19956;-70
2021/07/13 02:02:49;;;;;;;;;;;;;;;18.52;100.00;95030.69;1041154;28;19963;-70
2021/07/13 02:03:23;;;;;;;;;;;;;;;18.54;100.00;95047.38;1044852;28;19928;-70
2021/07/13 02:03:54;;;;;;;;;;;;;;;18.55;100.00;95042.75;1044198;28;20351;-70
2021/07/13 02:04:26;;;;;;;;;;;;;;;18.56;100.00;95053.22;1036511;28;19940;-70
2021/07/13 02:04:56;;;;;;;;;;;;;;;18.56;100.00;95049.72;1037408;28;19963;-70
2021/07/13 02:05:27;;;;;;;;;;;;;;;18.58;100.00;95047.47;1040570;28;19959;-71
2021/07/13 02:05:57;;;;;;;;;;;;;;;18.60;100.00;95048.69;1037101;28;19917;-71
2021/07/13 02:06:27;;;;;;;;;;;;;;;18.60;100.00;95043.28;1044752;28;19909;-70
2021/07/13 02:06:58;;;;;;;;;;;;;;;18.63;100.00;95041.81;1044827;28;19909;-70
2021/07/13 02:07:28;;;;;;;;;;;;;;;18.63;100.00;95048.03;1044837;28;19909;-70
2021/07/13 02:07:59;;;;;;;;;;;;;;;18.63;100.00;95045.31;1053081;28;19908;-70
2021/07/13 02:08:30;;;;;;;;;;;;;;;18.63;100.00;95049.91;1053086;28;19940;-70
2021/07/13 02:09:05;;;;;;;;;;;;;;;18.63;100.00;95052.63;1048798;28;19904;-70
2021/07/13 02:09:35;;;;;;;;;;;;;;;18.62;100.00;95049.13;1043972;28;19955;-70
2021/07/13 02:10:06;;;;;;;;;;;;;;;18.63;100.00;95049.91;1044794;28;19915;-70
2021/07/13 02:10:36;;;;;;;;;;;;;;;18.60;100.00;95047.91;1045538;28;19909;-70
2021/07/13 02:11:07;;;;;;;;;;;;;;;18.60;100.00;95048.69;1049091;28;19950;-71
2021/07/13 02:11:37;;;;;;;;;;;;;;;18.60;100.00;95045.22;1052964;28;19914;-71
2021/07/13 02:12:08;;;;;;;;;;;;;;;18.57;100.00;95041.25;1053075;28;19908;-71
2021/07/13 02:12:38;;;;;;;;;;;;;;;18.56;100.00;95041.63;1052991;28;19912;-71
2021/07/13 02:13:10;;;;;;;;;;;;;;;18.56;100.00;95036.97;1048899;28;19913;-71
2021/07/13 02:13:40;;;;;;;;;;;;;;;18.56;100.00;95036.19;1044529;28;19971;-71
2021/07/13 02:14:11;;;;;;;;;;;;;;;18.55;100.00;95032.72;1044737;28;19961;-71
2021/07/13 02:14:41;;;;;;;;;;;;;;;18.54;100.00;95035.78;1040869;28;19917;-71
2021/07/13 02:15:11;;;;;;;;;;;;;;;18.53;100.00;95037.69;1045015;28;20332;-71
2021/07/13 02:15:42;;;;;;;;;;;;;;;18.53;100.00;95034.97;1048793;28;19909;-71
2021/07/13 02:16:12;;;;;;;;;;;;;;;18.53;100.00;95040.41;1044847;28;19912;-71
2021/07/13 02:16:42;;;;;;;;;;;;;;;18.51;100.00;95034.53;1049171;28;20361;-71
2021/07/13 02:17:13;;;;;;;;;;;;;;;18.51;100.00;95037.22;1044807;28;19995;-71
2021/07/13 02:17:44;;;;;;;;;;;;;;;18.50;100.00;95041.06;1044727;28;20428;-71
2021/07/13 02:18:15;;;;;;;;;;;;;;;18.49;100.00;95033.31;1040493;28;19913;-71
2021/07/13 02:18:46;;;;;;;;;;;;;;;18.50;100.00;95041.06;1044913;28;19925;-71
2021/07/13 02:19:16;;;;;;;;;;;;;;;18.49;100.00;95044.13;1048750;28;20423;-71
2021/07/13 02:19:46;;;;;;;;;;;;;;;18.48;100.00;95040.63;1049178;28;20003;-72
2021/07/13 02:20:17;;;;;;;;;;;;;;;18.49;100.00;95028.69;1052795;28;19919;-71
2021/07/13 02:20:48;;;;;;;;;;;;;;;18.47;100.00;95030.13;1044749;28;19923;-71
2021/07/13 02:21:18;;;;;;;;;;;;;;;18.44;100.00;95040.53;1044666;28;19936;-71
2021/07/13 02:21:48;;;;;;;;;;;;;;;18.43;100.00;95035.47;1044738;28;20011;-71
2021/07/13 02:22:19;;;;;;;;;;;;;;;18.44;100.00;95026.22;1044675;28;19917;-71
2021/07/13 02:22:49;;;;;;;;;;;;;;;18.45;100.00;95028.56;1049119;28;19923;-71
2021/07/13 02:23:19;;;;;;;;;;;;;;;18.48;100.00;95026.28;1044718;28;20269;-71
2021/07/13 02:23:49;;;;;;;;;;;;;;;18.47;100.00;95028.22;1040619;28;20299;-71
2021/07/13 02:24:20;;;;;;;;;;;;;;;18.48;100.00;95024.41;1040500;28;19920;-71
2021/07/13 02:24:50;;;;;;;;;;;;;;;18.49;100.00;95022.47;1040514;28;19957;-72
2021/07/13 02:25:20;;;;;;;;;;;;;;;18.49;100.00;95020.56;1044751;28;19912;-71
2021/07/13 02:25:54;;;;;;;;;;;;;;;18.52;100.00;95024.47;1044668;28;20554;-71
2021/07/13 02:26:27;;;;;;;;;;;;;;;18.53;100.00;95016.03;1045188;28;19966;-71
2021/07/13 02:27:01;;;;;;;;;;;;;;;18.49;100.00;95012.44;1044707;28;19965;-71
2021/07/13 02:27:32;;;;;;;;;;;;;;;18.50;100.00;95013.22;1040629;28;19913;-71
2021/07/13 02:28:02;;;;;;;;;;;;;;;18.50;100.00;95010.53;1040621;28;20374;-71
2021/07/13 02:28:39;;;;;;;;;;;;;;;18.50;100.00;95008.59;1041166;28;19917;-71
2021/07/13 02:29:11;;;;;;;;;;;;;;;18.52;100.00;95008.25;1049975;28;19919;-71
2021/07/13 02:29:42;;;;;;;;;;;;;;;18.53;100.00;95004.41;1048151;28;19948;-71
2021/07/13 02:30:12;;;;;;;;;;;;;;;18.52;100.00;95006.34;1046932;28;19917;-72
2021/07/13 02:30:44;;;;;;;;;;;;;;;18.53;100.00;95002.53;1046442;28;19920;-71
2021/07/13 02:31:15;;;;;;;;;;;;;;;18.52;100.00;95003.63;1042591;28;19909;-71
2021/07/13 02:31:48;;;;;;;;;;;;;;;18.53;100.00;95002.53;1040671;28;19923;-71
2021/07/13 02:32:21;;;;;;;;;;;;;;;18.54;100.00;94998.69;1044616;28;19971;-71
2021/07/13 02:32:54;;;;;;;;;;;;;;;18.53;100.00;95004.41;1040599;28;19992;-71
2021/07/13 02:33:25;;;;;;;;;;;;;;;18.53;100.00;95007.13;1034029;28;20383;-71
2021/07/13 02:33:57;;;;;;;;;;;;;;;18.54;100.00;95006.00;1031549;28;20052;-71
2021/07/13 02:34:28;;;;;;;;;;;;;;;18.54;100.00;95011.41;1032351;28;19949;-71
2021/07/13 02:34:58;;;;;;;;;;;;;;;18.53;100.00;95010.63;1033362;28;19914;-71
2021/07/13 02:35:31;;;;;;;;;;;;;;;18.53;100.00;95007.13;1041215;28;19921;-71
2021/07/13 02:36:03;;;;;;;;;;;;;;;18.52;100.00;95011.75;1044680;28;20031;-71
2021/07/13 02:36:34;;;;;;;;;;;;;;;18.51;100.00;95012.88;1044609;28;19913;-71
2021/07/13 02:37:04;;;;;;;;;;;;;;;18.48;100.00;95002.75;1044712;28;19909;-71
2021/07/13 02:37:35;;;;;;;;;;;;;;;18.46;100.00;95005.00;1049230;28;19916;-71
2021/07/13 02:38:06;;;;;;;;;;;;;;;18.45;100.00;95001.50;1048873;28;20422;-71
2021/07/13 02:38:37;;;;;;;;;;;;;;;18.45;100.00;95006.16;1048771;28;19913;-71
2021/07/13 02:39:07;;;;;;;;;;;;;;;18.42;100.00;95004.13;1048577;28;19912;-71
2021/07/13 02:39:38;;;;;;;;;;;;;;;18.41;100.00;95007.97;1040472;28;19963;-71
2021/07/13 02:40:09;;;;;;;;;;;;;;;18.38;100.00;95003.25;1040598;28;19909;-71
2021/07/13 02:40:39;;;;;;;;;;;;;;;18.38;100.00;95003.25;1044780;28;19909;-71
2021/07/13 02:41:09;;;;;;;;;;;;;;;18.35;100.00;95006.63;1044632;28;19913;-71
2021/07/13 02:41:40;;;;;;;;;;;;;;;18.33;100.00;95004.28;1040592;28;19996;-71
2021/07/13 02:42:10;;;;;;;;;;;;;;;18.35;100.00;95006.63;1040565;28;19913;-71
2021/07/13 02:42:47;;;;;;;;;;;;;;;18.35;100.00;95006.63;1040572;28;19955;-71